Terminal Aerodrome Forecast
Issued by NWS

Current Version | Previous Version | Text Only | Print | Product List | Glossary On
Versions: 1 2 3 4 5 6 7 8 9 10 11 12 13 14 15 16 17 18 19 20 21
000
FTAK31 PAFA 180818 AAA
TAFAQT
TAF AMD
PAQT 180818Z 1808/1906 23012KT 2SM -SN BR BKN010 OVC040
     FM181000 17014KT 2SM -SN BR OVC012
     FM181600 12012KT 1SM -SN BR OVC008
     FM190000 29014KT 1 1/2SM -SN BR OVC015
     FM190300 27014KT 6SM -SN BR OVC015=

USA.gov is the U.S. government's official web portal to all federal, state and local government web resources and services.